Yaounde, Cameroon
Current Conditions -  °F | °C
As of 12:00 AM on Sunday 26 Oct 2014 (Local Time) from FKYS Reporting Station
Thunderstorm Thunderstorm  
Wind Chill: 68°   Ceiling: 600
Heat Index: 68°   Visibility: 4mi
Dew Point: 66°   Wind: 7mph
Humidity: 94%   Direction: 60°ENE
Pressure: 30.03"   Gusts: NA
Location:  3.87°N, 11.52°E
Report Text: FKYS 252300Z 06006KT 030V100 6000 -TSRA FEW003 BKN006SCT016CB 20/19 Q1017 NOSIG
Loading
Personal Weather Stations






























Interactive Weather Map New forecast layout! Learn more

10-Day Weather Forecast

Advertisements
Track Severe Weather on mobile